sensor_id;sensor_type;location;lat;lon;timestamp;P1;durP1;ratioP1;P2;durP2;ratioP2
63346;SDS011;49472;49.880;8.650;2024-01-06T00:00:37;14.97;;;13.57;;
63346;SDS011;49472;49.880;8.650;2024-01-06T00:03:03;15.20;;;14.00;;
63346;SDS011;49472;49.880;8.650;2024-01-06T00:05:28;15.87;;;14.27;;
63346;SDS011;49472;49.880;8.650;2024-01-06T00:07:53;22.33;;;14.10;;
63346;SDS011;49472;49.880;8.650;2024-01-06T00:10:18;14.53;;;13.20;;
63346;SDS011;49472;49.880;8.650;2024-01-06T00:12:44;14.43;;;13.43;;
63346;SDS011;49472;49.880;8.650;2024-01-06T00:15:09;14.50;;;13.20;;
63346;SDS011;49472;49.880;8.650;2024-01-06T00:17:35;13.90;;;12.60;;
63346;SDS011;49472;49.880;8.650;2024-01-06T00:20:01;14.67;;;13.33;;
63346;SDS011;49472;49.880;8.650;2024-01-06T00:22:27;14.80;;;13.53;;
63346;SDS011;49472;49.880;8.650;2024-01-06T00:24:52;15.67;;;14.43;;
63346;SDS011;49472;49.880;8.650;2024-01-06T00:27:17;16.57;;;14.83;;
63346;SDS011;49472;49.880;8.650;2024-01-06T00:29:42;16.83;;;15.10;;
63346;SDS011;49472;49.880;8.650;2024-01-06T00:32:08;14.53;;;13.50;;
63346;SDS011;49472;49.880;8.650;2024-01-06T00:34:34;18.33;;;14.67;;
63346;SDS011;49472;49.880;8.650;2024-01-06T00:37:00;14.67;;;13.53;;
63346;SDS011;49472;49.880;8.650;2024-01-06T00:39:25;15.53;;;13.90;;
63346;SDS011;49472;49.880;8.650;2024-01-06T00:41:50;16.23;;;13.80;;
63346;SDS011;49472;49.880;8.650;2024-01-06T00:44:15;19.37;;;14.40;;
63346;SDS011;49472;49.880;8.650;2024-01-06T00:46:40;14.87;;;13.57;;
63346;SDS011;49472;49.880;8.650;2024-01-06T00:49:07;15.57;;;14.17;;
63346;SDS011;49472;49.880;8.650;2024-01-06T00:51:32;15.27;;;13.70;;
63346;SDS011;49472;49.880;8.650;2024-01-06T00:53:58;15.60;;;14.10;;
63346;SDS011;49472;49.880;8.650;2024-01-06T00:56:23;15.30;;;13.87;;
63346;SDS011;49472;49.880;8.650;2024-01-06T00:58:48;14.10;;;12.70;;
63346;SDS011;49472;49.880;8.650;2024-01-06T01:01:14;22.13;;;14.23;;
63346;SDS011;49472;49.880;8.650;2024-01-06T01:03:39;13.10;;;12.10;;
63346;SDS011;49472;49.880;8.650;2024-01-06T01:06:04;15.33;;;13.83;;
63346;SDS011;49472;49.880;8.650;2024-01-06T01:08:29;14.80;;;13.43;;
63346;SDS011;49472;49.880;8.650;2024-01-06T01:10:55;14.10;;;13.20;;
63346;SDS011;49472;49.880;8.650;2024-01-06T01:13:21;17.47;;;15.87;;
63346;SDS011;49472;49.880;8.650;2024-01-06T01:15:46;15.50;;;14.20;;
63346;SDS011;49472;49.880;8.650;2024-01-06T01:18:11;15.43;;;14.00;;
63346;SDS011;49472;49.880;8.650;2024-01-06T01:20:36;16.60;;;14.27;;
63346;SDS011;49472;49.880;8.650;2024-01-06T01:23:02;15.53;;;13.93;;
63346;SDS011;49472;49.880;8.650;2024-01-06T01:25:27;14.77;;;13.67;;
63346;SDS011;49472;49.880;8.650;2024-01-06T01:27:52;14.60;;;13.50;;
63346;SDS011;49472;49.880;8.650;2024-01-06T01:30:18;15.33;;;13.70;;
63346;SDS011;49472;49.880;8.650;2024-01-06T01:32:44;15.37;;;13.63;;
63346;SDS011;49472;49.880;8.650;2024-01-06T01:35:09;14.50;;;13.17;;
63346;SDS011;49472;49.880;8.650;2024-01-06T01:37:34;14.87;;;13.20;;
63346;SDS011;49472;49.880;8.650;2024-01-06T01:39:59;24.93;;;14.60;;
63346;SDS011;49472;49.880;8.650;2024-01-06T01:42:25;16.03;;;14.20;;
63346;SDS011;49472;49.880;8.650;2024-01-06T01:44:50;19.80;;;13.80;;
63346;SDS011;49472;49.880;8.650;2024-01-06T01:47:15;15.90;;;14.17;;
63346;SDS011;49472;49.880;8.650;2024-01-06T01:49:43;17.07;;;14.70;;
63346;SDS011;49472;49.880;8.650;2024-01-06T01:52:09;16.70;;;13.57;;
63346;SDS011;49472;49.880;8.650;2024-01-06T01:54:34;16.57;;;13.97;;
63346;SDS011;49472;49.880;8.650;2024-01-06T01:57:00;14.77;;;13.17;;
63346;SDS011;49472;49.880;8.650;2024-01-06T01:59:25;13.63;;;12.50;;
63346;SDS011;49472;49.880;8.650;2024-01-06T02:01:50;14.23;;;13.07;;
63346;SDS011;49472;49.880;8.650;2024-01-06T02:04:16;14.90;;;13.70;;
63346;SDS011;49472;49.880;8.650;2024-01-06T02:06:41;18.30;;;14.00;;
63346;SDS011;49472;49.880;8.650;2024-01-06T02:09:06;16.33;;;15.13;;
63346;SDS011;49472;49.880;8.650;2024-01-06T02:11:31;16.70;;;13.80;;
63346;SDS011;49472;49.880;8.650;2024-01-06T02:13:57;14.90;;;13.40;;
63346;SDS011;49472;49.880;8.650;2024-01-06T02:16:22;14.83;;;13.60;;
63346;SDS011;49472;49.880;8.650;2024-01-06T02:18:47;14.30;;;13.17;;
63346;SDS011;49472;49.880;8.650;2024-01-06T02:21:15;14.07;;;12.97;;
63346;SDS011;49472;49.880;8.650;2024-01-06T02:23:40;14.87;;;13.60;;
63346;SDS011;49472;49.880;8.650;2024-01-06T02:26:06;14.10;;;12.83;;
63346;SDS011;49472;49.880;8.650;2024-01-06T02:28:31;17.00;;;14.20;;
63346;SDS011;49472;49.880;8.650;2024-01-06T02:30:56;14.63;;;13.30;;
63346;SDS011;49472;49.880;8.650;2024-01-06T02:33:22;14.50;;;13.00;;
63346;SDS011;49472;49.880;8.650;2024-01-06T02:35:49;19.37;;;13.50;;
63346;SDS011;49472;49.880;8.650;2024-01-06T02:38:14;14.53;;;13.03;;
63346;SDS011;49472;49.880;8.650;2024-01-06T02:40:39;14.70;;;13.33;;
63346;SDS011;49472;49.880;8.650;2024-01-06T02:43:04;14.27;;;13.00;;
63346;SDS011;49472;49.880;8.650;2024-01-06T02:45:30;15.00;;;13.60;;
63346;SDS011;49472;49.880;8.650;2024-01-06T02:47:55;14.33;;;13.43;;
63346;SDS011;49472;49.880;8.650;2024-01-06T02:50:20;14.00;;;12.93;;
63346;SDS011;49472;49.880;8.650;2024-01-06T02:52:46;26.17;;;14.60;;
63346;SDS011;49472;49.880;8.650;2024-01-06T02:55:13;14.13;;;12.90;;
63346;SDS011;49472;49.880;8.650;2024-01-06T02:57:41;16.27;;;14.60;;
63346;SDS011;49472;49.880;8.650;2024-01-06T03:00:07;18.93;;;14.83;;
63346;SDS011;49472;49.880;8.650;2024-01-06T03:02:32;27.20;;;15.80;;
63346;SDS011;49472;49.880;8.650;2024-01-06T03:04:58;13.63;;;12.63;;
63346;SDS011;49472;49.880;8.650;2024-01-06T03:07:23;15.00;;;13.70;;
63346;SDS011;49472;49.880;8.650;2024-01-06T03:09:48;21.90;;;13.47;;
63346;SDS011;49472;49.880;8.650;2024-01-06T03:12:13;20.97;;;14.03;;
63346;SDS011;49472;49.880;8.650;2024-01-06T03:14:38;13.93;;;13.00;;
63346;SDS011;49472;49.880;8.650;2024-01-06T03:17:04;15.93;;;13.57;;
63346;SDS011;49472;49.880;8.650;2024-01-06T03:19:29;14.63;;;13.40;;
63346;SDS011;49472;49.880;8.650;2024-01-06T03:21:54;14.97;;;13.60;;
63346;SDS011;49472;49.880;8.650;2024-01-06T03:24:23;15.40;;;13.80;;
63346;SDS011;49472;49.880;8.650;2024-01-06T03:26:48;16.10;;;14.30;;
63346;SDS011;49472;49.880;8.650;2024-01-06T03:29:14;15.10;;;13.90;;
63346;SDS011;49472;49.880;8.650;2024-01-06T03:31:42;14.27;;;13.27;;
63346;SDS011;49472;49.880;8.650;2024-01-06T03:34:07;16.57;;;13.43;;
63346;SDS011;49472;49.880;8.650;2024-01-06T03:36:33;14.73;;;13.30;;
63346;SDS011;49472;49.880;8.650;2024-01-06T03:38:58;15.30;;;14.20;;
63346;SDS011;49472;49.880;8.650;2024-01-06T03:41:23;15.77;;;14.30;;
63346;SDS011;49472;49.880;8.650;2024-01-06T03:43:49;15.43;;;13.80;;
63346;SDS011;49472;49.880;8.650;2024-01-06T03:46:15;16.73;;;13.70;;
63346;SDS011;49472;49.880;8.650;2024-01-06T03:48:41;14.23;;;13.07;;
63346;SDS011;49472;49.880;8.650;2024-01-06T03:51:07;21.70;;;13.90;;
63346;SDS011;49472;49.880;8.650;2024-01-06T03:53:32;16.37;;;14.10;;
63346;SDS011;49472;49.880;8.650;2024-01-06T03:55:57;23.60;;;14.97;;
63346;SDS011;49472;49.880;8.650;2024-01-06T03:58:23;15.77;;;14.57;;
63346;SDS011;49472;49.880;8.650;2024-01-06T04:00:48;15.43;;;14.10;;
63346;SDS011;49472;49.880;8.650;2024-01-06T04:03:13;15.27;;;13.83;;
63346;SDS011;49472;49.880;8.650;2024-01-06T04:05:38;15.97;;;14.57;;
63346;SDS011;49472;49.880;8.650;2024-01-06T04:08:03;15.67;;;14.10;;
63346;SDS011;49472;49.880;8.650;2024-01-06T04:10:30;15.00;;;13.63;;
63346;SDS011;49472;49.880;8.650;2024-01-06T04:12:55;15.90;;;14.10;;
63346;SDS011;49472;49.880;8.650;2024-01-06T04:15:20;15.40;;;14.20;;
63346;SDS011;49472;49.880;8.650;2024-01-06T04:17:48;15.10;;;13.90;;
63346;SDS011;49472;49.880;8.650;2024-01-06T04:20:15;16.00;;;14.30;;
63346;SDS011;49472;49.880;8.650;2024-01-06T04:22:40;15.90;;;13.60;;
63346;SDS011;49472;49.880;8.650;2024-01-06T04:25:05;14.90;;;13.50;;
63346;SDS011;49472;49.880;8.650;2024-01-06T04:27:30;15.50;;;14.07;;
63346;SDS011;49472;49.880;8.650;2024-01-06T04:29:56;14.43;;;13.37;;
63346;SDS011;49472;49.880;8.650;2024-01-06T04:32:21;14.43;;;13.37;;
63346;SDS011;49472;49.880;8.650;2024-01-06T04:34:46;16.93;;;14.10;;
63346;SDS011;49472;49.880;8.650;2024-01-06T04:37:11;15.13;;;13.60;;
63346;SDS011;49472;49.880;8.650;2024-01-06T04:39:36;14.73;;;13.40;;
63346;SDS011;49472;49.880;8.650;2024-01-06T04:42:03;17.50;;;14.20;;
63346;SDS011;49472;49.880;8.650;2024-01-06T04:44:29;15.63;;;14.10;;
63346;SDS011;49472;49.880;8.650;2024-01-06T04:46:54;15.30;;;13.67;;
63346;SDS011;49472;49.880;8.650;2024-01-06T04:49:19;13.43;;;12.43;;
63346;SDS011;49472;49.880;8.650;2024-01-06T04:51:44;14.63;;;13.20;;
63346;SDS011;49472;49.880;8.650;2024-01-06T04:54:10;13.83;;;12.93;;
63346;SDS011;49472;49.880;8.650;2024-01-06T04:56:35;15.47;;;13.87;;
63346;SDS011;49472;49.880;8.650;2024-01-06T04:59:00;17.67;;;13.90;;
63346;SDS011;49472;49.880;8.650;2024-01-06T05:01:25;14.67;;;13.53;;
63346;SDS011;49472;49.880;8.650;2024-01-06T05:03:50;15.57;;;14.10;;
63346;SDS011;49472;49.880;8.650;2024-01-06T05:06:16;14.47;;;13.37;;
63346;SDS011;49472;49.880;8.650;2024-01-06T05:08:41;15.63;;;14.10;;
63346;SDS011;49472;49.880;8.650;2024-01-06T05:11:10;14.87;;;13.63;;
63346;SDS011;49472;49.880;8.650;2024-01-06T05:13:36;14.73;;;13.50;;
63346;SDS011;49472;49.880;8.650;2024-01-06T05:16:01;13.97;;;12.97;;
63346;SDS011;49472;49.880;8.650;2024-01-06T05:18:27;13.83;;;12.93;;
63346;SDS011;49472;49.880;8.650;2024-01-06T05:20:52;13.77;;;12.83;;
63346;SDS011;49472;49.880;8.650;2024-01-06T05:23:17;16.07;;;14.47;;
63346;SDS011;49472;49.880;8.650;2024-01-06T05:25:42;14.13;;;12.90;;
63346;SDS011;49472;49.880;8.650;2024-01-06T05:28:07;16.93;;;13.23;;
63346;SDS011;49472;49.880;8.650;2024-01-06T05:30:33;21.27;;;14.50;;
63346;SDS011;49472;49.880;8.650;2024-01-06T05:32:59;14.10;;;13.10;;
63346;SDS011;49472;49.880;8.650;2024-01-06T05:35:24;13.47;;;12.57;;
63346;SDS011;49472;49.880;8.650;2024-01-06T05:37:49;15.20;;;13.67;;
63346;SDS011;49472;49.880;8.650;2024-01-06T05:40:15;18.93;;;13.57;;
63346;SDS011;49472;49.880;8.650;2024-01-06T05:42:40;14.80;;;13.60;;
63346;SDS011;49472;49.880;8.650;2024-01-06T05:45:05;16.00;;;13.40;;
63346;SDS011;49472;49.880;8.650;2024-01-06T05:47:31;13.83;;;12.73;;
63346;SDS011;49472;49.880;8.650;2024-01-06T05:49:56;14.63;;;13.23;;
63346;SDS011;49472;49.880;8.650;2024-01-06T05:52:21;19.33;;;13.87;;
63346;SDS011;49472;49.880;8.650;2024-01-06T05:54:46;15.53;;;14.20;;
63346;SDS011;49472;49.880;8.650;2024-01-06T05:57:11;15.43;;;13.90;;
63346;SDS011;49472;49.880;8.650;2024-01-06T05:59:36;14.67;;;13.67;;
63346;SDS011;49472;49.880;8.650;2024-01-06T06:02:02;16.33;;;15.00;;
63346;SDS011;49472;49.880;8.650;2024-01-06T06:04:27;14.50;;;13.43;;
63346;SDS011;49472;49.880;8.650;2024-01-06T06:06:52;15.60;;;13.70;;
63346;SDS011;49472;49.880;8.650;2024-01-06T06:09:17;15.67;;;14.23;;
63346;SDS011;49472;49.880;8.650;2024-01-06T06:11:43;13.83;;;12.90;;
63346;SDS011;49472;49.880;8.650;2024-01-06T06:14:08;15.10;;;14.00;;
63346;SDS011;49472;49.880;8.650;2024-01-06T06:16:34;15.73;;;14.30;;
63346;SDS011;49472;49.880;8.650;2024-01-06T06:18:59;14.97;;;13.60;;
63346;SDS011;49472;49.880;8.650;2024-01-06T06:21:24;15.57;;;13.97;;
63346;SDS011;49472;49.880;8.650;2024-01-06T06:23:50;15.03;;;13.80;;
63346;SDS011;49472;49.880;8.650;2024-01-06T06:26:15;15.23;;;13.93;;
63346;SDS011;49472;49.880;8.650;2024-01-06T06:28:40;15.27;;;13.73;;
63346;SDS011;49472;49.880;8.650;2024-01-06T06:31:06;15.50;;;14.23;;
63346;SDS011;49472;49.880;8.650;2024-01-06T06:33:31;15.73;;;14.27;;
63346;SDS011;49472;49.880;8.650;2024-01-06T06:35:58;14.37;;;13.47;;
63346;SDS011;49472;49.880;8.650;2024-01-06T06:38:23;16.23;;;14.60;;
63346;SDS011;49472;49.880;8.650;2024-01-06T06:40:50;15.07;;;14.00;;
63346;SDS011;49472;49.880;8.650;2024-01-06T06:43:15;15.23;;;14.03;;
63346;SDS011;49472;49.880;8.650;2024-01-06T06:45:40;23.33;;;14.90;;
63346;SDS011;49472;49.880;8.650;2024-01-06T06:48:05;20.03;;;16.17;;
63346;SDS011;49472;49.880;8.650;2024-01-06T06:50:31;15.03;;;13.63;;
63346;SDS011;49472;49.880;8.650;2024-01-06T06:52:58;22.20;;;15.67;;
63346;SDS011;49472;49.880;8.650;2024-01-06T06:55:23;15.30;;;13.87;;
63346;SDS011;49472;49.880;8.650;2024-01-06T06:57:49;16.57;;;14.87;;
63346;SDS011;49472;49.880;8.650;2024-01-06T07:00:14;17.43;;;14.53;;
63346;SDS011;49472;49.880;8.650;2024-01-06T07:02:41;15.53;;;14.53;;
63346;SDS011;49472;49.880;8.650;2024-01-06T07:05:06;16.90;;;15.20;;
63346;SDS011;49472;49.880;8.650;2024-01-06T07:07:32;16.77;;;15.00;;
63346;SDS011;49472;49.880;8.650;2024-01-06T07:09:57;16.40;;;15.10;;
63346;SDS011;49472;49.880;8.650;2024-01-06T07:12:23;16.30;;;14.00;;
63346;SDS011;49472;49.880;8.650;2024-01-06T07:14:48;16.10;;;14.70;;
63346;SDS011;49472;49.880;8.650;2024-01-06T07:17:13;16.70;;;15.13;;
63346;SDS011;49472;49.880;8.650;2024-01-06T07:19:38;15.77;;;14.50;;
63346;SDS011;49472;49.880;8.650;2024-01-06T07:22:04;16.40;;;14.90;;
63346;SDS011;49472;49.880;8.650;2024-01-06T07:24:30;16.43;;;15.23;;
63346;SDS011;49472;49.880;8.650;2024-01-06T07:26:55;16.00;;;14.70;;
63346;SDS011;49472;49.880;8.650;2024-01-06T07:29:20;16.13;;;14.83;;
63346;SDS011;49472;49.880;8.650;2024-01-06T07:31:45;15.73;;;14.33;;
63346;SDS011;49472;49.880;8.650;2024-01-06T07:34:12;18.40;;;15.27;;
63346;SDS011;49472;49.880;8.650;2024-01-06T07:36:39;15.40;;;13.80;;
63346;SDS011;49472;49.880;8.650;2024-01-06T07:39:04;19.63;;;15.43;;
63346;SDS011;49472;49.880;8.650;2024-01-06T07:41:30;16.70;;;15.27;;
63346;SDS011;49472;49.880;8.650;2024-01-06T07:43:57;16.30;;;14.83;;
63346;SDS011;49472;49.880;8.650;2024-01-06T07:46:22;17.47;;;15.67;;
63346;SDS011;49472;49.880;8.650;2024-01-06T07:48:47;17.37;;;15.63;;
63346;SDS011;49472;49.880;8.650;2024-01-06T07:51:12;15.60;;;14.23;;
63346;SDS011;49472;49.880;8.650;2024-01-06T07:53:38;17.30;;;15.67;;
63346;SDS011;49472;49.880;8.650;2024-01-06T07:56:03;17.70;;;14.50;;
63346;SDS011;49472;49.880;8.650;2024-01-06T07:58:28;15.90;;;14.60;;
63346;SDS011;49472;49.880;8.650;2024-01-06T08:00:54;25.67;;;15.47;;
63346;SDS011;49472;49.880;8.650;2024-01-06T08:03:19;17.90;;;16.00;;
63346;SDS011;49472;49.880;8.650;2024-01-06T08:05:44;15.70;;;14.50;;
63346;SDS011;49472;49.880;8.650;2024-01-06T08:08:09;16.97;;;15.20;;
63346;SDS011;49472;49.880;8.650;2024-01-06T08:10:34;18.20;;;16.23;;
63346;SDS011;49472;49.880;8.650;2024-01-06T08:13:00;20.57;;;15.47;;
63346;SDS011;49472;49.880;8.650;2024-01-06T08:15:25;15.90;;;14.37;;
63346;SDS011;49472;49.880;8.650;2024-01-06T08:17:50;17.00;;;15.43;;
63346;SDS011;49472;49.880;8.650;2024-01-06T08:20:15;16.50;;;15.10;;
63346;SDS011;49472;49.880;8.650;2024-01-06T08:22:41;17.23;;;15.63;;
63346;SDS011;49472;49.880;8.650;2024-01-06T08:25:06;15.80;;;14.63;;
63346;SDS011;49472;49.880;8.650;2024-01-06T08:27:32;16.57;;;15.03;;
63346;SDS011;49472;49.880;8.650;2024-01-06T08:29:57;16.77;;;15.33;;
63346;SDS011;49472;49.880;8.650;2024-01-06T08:32:22;17.43;;;15.70;;
63346;SDS011;49472;49.880;8.650;2024-01-06T08:34:48;16.50;;;14.90;;
63346;SDS011;49472;49.880;8.650;2024-01-06T08:37:13;15.83;;;14.23;;
63346;SDS011;49472;49.880;8.650;2024-01-06T08:39:39;16.17;;;14.43;;
63346;SDS011;49472;49.880;8.650;2024-01-06T08:42:04;17.97;;;15.30;;
63346;SDS011;49472;49.880;8.650;2024-01-06T08:44:29;15.87;;;14.67;;
63346;SDS011;49472;49.880;8.650;2024-01-06T08:46:54;16.83;;;15.63;;
63346;SDS011;49472;49.880;8.650;2024-01-06T08:49:20;18.03;;;16.40;;
63346;SDS011;49472;49.880;8.650;2024-01-06T08:51:45;19.13;;;15.87;;
63346;SDS011;49472;49.880;8.650;2024-01-06T08:54:10;18.23;;;16.50;;
63346;SDS011;49472;49.880;8.650;2024-01-06T08:56:35;19.73;;;16.17;;
63346;SDS011;49472;49.880;8.650;2024-01-06T08:59:01;18.93;;;15.83;;
63346;SDS011;49472;49.880;8.650;2024-01-06T09:01:26;17.07;;;15.47;;
63346;SDS011;49472;49.880;8.650;2024-01-06T09:03:51;21.93;;;16.40;;
63346;SDS011;49472;49.880;8.650;2024-01-06T09:06:17;16.40;;;15.00;;
63346;SDS011;49472;49.880;8.650;2024-01-06T09:08:42;21.67;;;16.10;;
63346;SDS011;49472;49.880;8.650;2024-01-06T09:11:07;18.63;;;15.93;;
63346;SDS011;49472;49.880;8.650;2024-01-06T09:13:32;16.87;;;15.37;;
63346;SDS011;49472;49.880;8.650;2024-01-06T09:15:58;17.77;;;16.00;;
63346;SDS011;49472;49.880;8.650;2024-01-06T09:18:23;17.93;;;16.17;;
63346;SDS011;49472;49.880;8.650;2024-01-06T09:20:48;19.40;;;17.40;;
63346;SDS011;49472;49.880;8.650;2024-01-06T09:23:15;17.00;;;15.37;;
63346;SDS011;49472;49.880;8.650;2024-01-06T09:25:40;17.43;;;15.70;;
63346;SDS011;49472;49.880;8.650;2024-01-06T09:28:05;17.00;;;15.40;;
63346;SDS011;49472;49.880;8.650;2024-01-06T09:30:30;18.00;;;16.30;;
63346;SDS011;49472;49.880;8.650;2024-01-06T09:32:55;17.30;;;15.70;;
63346;SDS011;49472;49.880;8.650;2024-01-06T09:35:21;18.83;;;16.30;;
63346;SDS011;49472;49.880;8.650;2024-01-06T09:37:46;17.57;;;15.93;;
63346;SDS011;49472;49.880;8.650;2024-01-06T09:40:12;27.33;;;16.37;;
63346;SDS011;49472;49.880;8.650;2024-01-06T09:42:40;19.10;;;16.50;;
63346;SDS011;49472;49.880;8.650;2024-01-06T09:45:05;18.67;;;16.97;;
63346;SDS011;49472;49.880;8.650;2024-01-06T09:47:31;19.17;;;17.27;;
63346;SDS011;49472;49.880;8.650;2024-01-06T09:49:58;17.70;;;16.20;;
63346;SDS011;49472;49.880;8.650;2024-01-06T09:52:25;18.53;;;16.33;;
63346;SDS011;49472;49.880;8.650;2024-01-06T09:54:52;18.63;;;16.80;;
63346;SDS011;49472;49.880;8.650;2024-01-06T09:57:17;17.17;;;15.57;;
63346;SDS011;49472;49.880;8.650;2024-01-06T09:59:46;18.50;;;16.60;;
63346;SDS011;49472;49.880;8.650;2024-01-06T10:02:16;18.30;;;16.60;;
63346;SDS011;49472;49.880;8.650;2024-01-06T10:04:43;17.50;;;16.00;;
63346;SDS011;49472;49.880;8.650;2024-01-06T10:07:08;17.90;;;16.17;;
63346;SDS011;49472;49.880;8.650;2024-01-06T10:09:33;18.90;;;17.20;;
63346;SDS011;49472;49.880;8.650;2024-01-06T10:11:58;23.63;;;17.97;;
63346;SDS011;49472;49.880;8.650;2024-01-06T10:14:24;19.17;;;17.30;;
63346;SDS011;49472;49.880;8.650;2024-01-06T10:16:50;19.33;;;17.37;;
63346;SDS011;49472;49.880;8.650;2024-01-06T10:19:16;17.43;;;15.90;;
63346;SDS011;49472;49.880;8.650;2024-01-06T10:21:41;18.70;;;16.87;;
63346;SDS011;49472;49.880;8.650;2024-01-06T10:24:09;18.60;;;16.60;;
63346;SDS011;49472;49.880;8.650;2024-01-06T10:26:35;20.10;;;16.57;;
63346;SDS011;49472;49.880;8.650;2024-01-06T10:29:00;34.57;;;18.63;;
63346;SDS011;49472;49.880;8.650;2024-01-06T10:31:25;19.77;;;17.73;;
63346;SDS011;49472;49.880;8.650;2024-01-06T10:33:51;19.10;;;17.20;;
63346;SDS011;49472;49.880;8.650;2024-01-06T10:36:16;18.40;;;16.70;;
63346;SDS011;49472;49.880;8.650;2024-01-06T10:38:42;19.50;;;17.83;;
63346;SDS011;49472;49.880;8.650;2024-01-06T10:41:07;20.57;;;18.57;;
63346;SDS011;49472;49.880;8.650;2024-01-06T10:43:35;18.30;;;16.37;;
63346;SDS011;49472;49.880;8.650;2024-01-06T10:46:03;19.17;;;17.40;;
63346;SDS011;49472;49.880;8.650;2024-01-06T10:48:32;18.83;;;16.90;;
63346;SDS011;49472;49.880;8.650;2024-01-06T10:50:59;18.70;;;16.80;;
63346;SDS011;49472;49.880;8.650;2024-01-06T10:53:26;22.60;;;17.17;;
63346;SDS011;49472;49.880;8.650;2024-01-06T10:55:51;19.00;;;17.00;;
63346;SDS011;49472;49.880;8.650;2024-01-06T10:58:17;19.93;;;17.90;;
63346;SDS011;49472;49.880;8.650;2024-01-06T11:00:43;20.13;;;16.80;;
63346;SDS011;49472;49.880;8.650;2024-01-06T11:03:08;19.47;;;17.67;;
63346;SDS011;49472;49.880;8.650;2024-01-06T11:05:34;19.67;;;17.73;;
63346;SDS011;49472;49.880;8.650;2024-01-06T11:08:00;18.53;;;16.80;;
63346;SDS011;49472;49.880;8.650;2024-01-06T11:10:26;18.67;;;17.00;;
63346;SDS011;49472;49.880;8.650;2024-01-06T11:15:50;19.77;;;17.37;;
63346;SDS011;49472;49.880;8.650;2024-01-06T11:18:38;20.10;;;18.10;;
63346;SDS011;49472;49.880;8.650;2024-01-06T11:21:14;19.07;;;17.20;;
63346;SDS011;49472;49.880;8.650;2024-01-06T11:23:39;18.43;;;16.83;;
63346;SDS011;49472;49.880;8.650;2024-01-06T11:26:09;19.10;;;16.90;;
63346;SDS011;49472;49.880;8.650;2024-01-06T11:28:44;19.53;;;17.80;;
63346;SDS011;49472;49.880;8.650;2024-01-06T11:31:09;18.50;;;16.90;;
63346;SDS011;49472;49.880;8.650;2024-01-06T11:33:44;18.33;;;16.83;;
63346;SDS011;49472;49.880;8.650;2024-01-06T11:36:09;19.40;;;17.50;;
63346;SDS011;49472;49.880;8.650;2024-01-06T11:38:38;18.60;;;16.90;;
63346;SDS011;49472;49.880;8.650;2024-01-06T11:41:06;22.73;;;18.43;;
63346;SDS011;49472;49.880;8.650;2024-01-06T11:43:31;19.23;;;17.47;;
63346;SDS011;49472;49.880;8.650;2024-01-06T11:45:59;17.63;;;16.20;;
63346;SDS011;49472;49.880;8.650;2024-01-06T11:48:26;18.73;;;17.03;;
63346;SDS011;49472;49.880;8.650;2024-01-06T11:50:53;17.80;;;16.30;;
63346;SDS011;49472;49.880;8.650;2024-01-06T11:53:18;18.30;;;16.70;;
63346;SDS011;49472;49.880;8.650;2024-01-06T11:55:44;18.77;;;16.87;;
63346;SDS011;49472;49.880;8.650;2024-01-06T11:58:10;20.07;;;18.00;;
63346;SDS011;49472;49.880;8.650;2024-01-06T12:00:35;19.70;;;17.70;;
63346;SDS011;49472;49.880;8.650;2024-01-06T12:03:04;18.80;;;16.80;;
63346;SDS011;49472;49.880;8.650;2024-01-06T12:05:30;16.80;;;15.30;;
63346;SDS011;49472;49.880;8.650;2024-01-06T12:10:21;18.13;;;16.43;;
63346;SDS011;49472;49.880;8.650;2024-01-06T12:15:24;18.73;;;16.80;;
63346;SDS011;49472;49.880;8.650;2024-01-06T12:17:49;20.80;;;16.50;;
63346;SDS011;49472;49.880;8.650;2024-01-06T12:20:15;19.20;;;17.37;;
63346;SDS011;49472;49.880;8.650;2024-01-06T12:22:41;18.67;;;16.60;;
63346;SDS011;49472;49.880;8.650;2024-01-06T12:25:07;20.07;;;17.73;;
63346;SDS011;49472;49.880;8.650;2024-01-06T12:27:32;19.43;;;17.53;;
63346;SDS011;49472;49.880;8.650;2024-01-06T12:29:57;23.20;;;17.60;;
63346;SDS011;49472;49.880;8.650;2024-01-06T12:32:23;24.63;;;17.80;;
63346;SDS011;49472;49.880;8.650;2024-01-06T12:34:48;20.13;;;18.03;;
63346;SDS011;49472;49.880;8.650;2024-01-06T12:37:13;20.50;;;18.13;;
63346;SDS011;49472;49.880;8.650;2024-01-06T12:39:39;20.37;;;17.60;;
63346;SDS011;49472;49.880;8.650;2024-01-06T12:42:06;19.60;;;17.40;;
63346;SDS011;49472;49.880;8.650;2024-01-06T12:44:31;19.67;;;17.73;;
63346;SDS011;49472;49.880;8.650;2024-01-06T12:46:58;19.67;;;17.97;;
63346;SDS011;49472;49.880;8.650;2024-01-06T12:49:24;20.13;;;17.97;;
63346;SDS011;49472;49.880;8.650;2024-01-06T12:51:49;21.70;;;18.00;;
63346;SDS011;49472;49.880;8.650;2024-01-06T12:54:15;20.30;;;17.20;;
63346;SDS011;49472;49.880;8.650;2024-01-06T12:56:40;20.27;;;18.10;;
63346;SDS011;49472;49.880;8.650;2024-01-06T12:59:05;19.77;;;17.70;;
63346;SDS011;49472;49.880;8.650;2024-01-06T13:01:31;20.83;;;18.50;;
63346;SDS011;49472;49.880;8.650;2024-01-06T13:03:56;22.33;;;20.07;;
63346;SDS011;49472;49.880;8.650;2024-01-06T13:06:24;19.87;;;18.00;;
63346;SDS011;49472;49.880;8.650;2024-01-06T13:08:50;19.97;;;17.43;;
63346;SDS011;49472;49.880;8.650;2024-01-06T13:11:16;20.13;;;18.23;;
63346;SDS011;49472;49.880;8.650;2024-01-06T13:13:41;21.30;;;18.80;;
63346;SDS011;49472;49.880;8.650;2024-01-06T13:16:06;20.27;;;17.77;;
63346;SDS011;49472;49.880;8.650;2024-01-06T13:18:32;19.93;;;18.03;;
63346;SDS011;49472;49.880;8.650;2024-01-06T13:20:57;26.80;;;18.37;;
63346;SDS011;49472;49.880;8.650;2024-01-06T13:23:22;20.90;;;18.90;;
63346;SDS011;49472;49.880;8.650;2024-01-06T13:25:48;23.20;;;18.10;;
63346;SDS011;49472;49.880;8.650;2024-01-06T13:28:13;21.50;;;19.17;;
63346;SDS011;49472;49.880;8.650;2024-01-06T13:30:39;19.07;;;17.47;;
63346;SDS011;49472;49.880;8.650;2024-01-06T13:33:05;22.23;;;19.93;;
63346;SDS011;49472;49.880;8.650;2024-01-06T13:35:30;20.23;;;18.07;;
63346;SDS011;49472;49.880;8.650;2024-01-06T13:37:56;19.10;;;17.53;;
63346;SDS011;49472;49.880;8.650;2024-01-06T13:40:22;20.40;;;18.50;;
63346;SDS011;49472;49.880;8.650;2024-01-06T13:42:48;20.27;;;18.30;;
63346;SDS011;49472;49.880;8.650;2024-01-06T13:45:13;20.70;;;18.73;;
63346;SDS011;49472;49.880;8.650;2024-01-06T13:47:38;19.90;;;17.97;;
63346;SDS011;49472;49.880;8.650;2024-01-06T13:50:06;26.33;;;18.50;;
63346;SDS011;49472;49.880;8.650;2024-01-06T13:52:32;19.23;;;17.53;;
63346;SDS011;49472;49.880;8.650;2024-01-06T13:54:57;21.40;;;18.20;;
63346;SDS011;49472;49.880;8.650;2024-01-06T13:57:22;19.30;;;17.60;;
63346;SDS011;49472;49.880;8.650;2024-01-06T13:59:47;20.60;;;18.50;;
63346;SDS011;49472;49.880;8.650;2024-01-06T14:02:13;28.67;;;20.87;;
63346;SDS011;49472;49.880;8.650;2024-01-06T14:04:40;22.00;;;19.90;;
63346;SDS011;49472;49.880;8.650;2024-01-06T14:07:05;21.67;;;19.30;;
63346;SDS011;49472;49.880;8.650;2024-01-06T14:09:31;21.13;;;19.10;;
63346;SDS011;49472;49.880;8.650;2024-01-06T14:11:57;20.97;;;17.77;;
63346;SDS011;49472;49.880;8.650;2024-01-06T14:14:22;20.90;;;18.90;;
63346;SDS011;49472;49.880;8.650;2024-01-06T14:16:47;20.90;;;18.70;;
63346;SDS011;49472;49.880;8.650;2024-01-06T14:19:13;22.97;;;19.50;;